sensor_id;sensor_type;location;lat;lon;timestamp;P1;durP1;ratioP1;P2;durP2;ratioP2
17424;SDS011;8830;50.978;5.058;2023-02-28T00:01:20;7.40;;;5.10;;
17424;SDS011;8830;50.978;5.058;2023-02-28T00:03:48;6.43;;;4.83;;
17424;SDS011;8830;50.978;5.058;2023-02-28T00:06:15;5.30;;;4.47;;
17424;SDS011;8830;50.978;5.058;2023-02-28T00:08:42;6.00;;;5.00;;
17424;SDS011;8830;50.978;5.058;2023-02-28T00:11:12;5.93;;;4.07;;
17424;SDS011;8830;50.978;5.058;2023-02-28T00:13:41;5.13;;;4.47;;
17424;SDS011;8830;50.978;5.058;2023-02-28T00:16:12;10.53;;;4.50;;
17424;SDS011;8830;50.978;5.058;2023-02-28T00:18:40;4.97;;;4.47;;
17424;SDS011;8830;50.978;5.058;2023-02-28T00:21:07;7.10;;;4.07;;
17424;SDS011;8830;50.978;5.058;2023-02-28T00:23:35;6.13;;;4.87;;
17424;SDS011;8830;50.978;5.058;2023-02-28T00:26:04;7.13;;;4.43;;
17424;SDS011;8830;50.978;5.058;2023-02-28T00:28:32;6.73;;;4.03;;
17424;SDS011;8830;50.978;5.058;2023-02-28T00:30:59;8.17;;;4.00;;
17424;SDS011;8830;50.978;5.058;2023-02-28T00:33:28;6.20;;;4.13;;
17424;SDS011;8830;50.978;5.058;2023-02-28T00:36:02;5.77;;;4.70;;
17424;SDS011;8830;50.978;5.058;2023-02-28T00:38:31;4.60;;;4.20;;
17424;SDS011;8830;50.978;5.058;2023-02-28T00:40:57;5.53;;;4.93;;
17424;SDS011;8830;50.978;5.058;2023-02-28T00:43:29;8.87;;;4.63;;
17424;SDS011;8830;50.978;5.058;2023-02-28T00:45:58;4.70;;;4.30;;
17424;SDS011;8830;50.978;5.058;2023-02-28T00:48:25;5.73;;;4.33;;
17424;SDS011;8830;50.978;5.058;2023-02-28T00:50:52;4.33;;;3.93;;
17424;SDS011;8830;50.978;5.058;2023-02-28T00:53:19;6.00;;;4.07;;
17424;SDS011;8830;50.978;5.058;2023-02-28T00:55:47;6.83;;;3.73;;
17424;SDS011;8830;50.978;5.058;2023-02-28T00:58:14;5.37;;;3.67;;
17424;SDS011;8830;50.978;5.058;2023-02-28T01:00:41;5.77;;;3.53;;
17424;SDS011;8830;50.978;5.058;2023-02-28T01:03:10;4.60;;;3.77;;
17424;SDS011;8830;50.978;5.058;2023-02-28T01:05:37;5.23;;;3.60;;
17424;SDS011;8830;50.978;5.058;2023-02-28T01:08:04;4.20;;;3.50;;
17424;SDS011;8830;50.978;5.058;2023-02-28T01:10:33;4.80;;;3.63;;
17424;SDS011;8830;50.978;5.058;2023-02-28T01:13:01;4.23;;;3.23;;
17424;SDS011;8830;50.978;5.058;2023-02-28T01:15:29;4.50;;;3.50;;
17424;SDS011;8830;50.978;5.058;2023-02-28T01:17:57;5.90;;;3.60;;
17424;SDS011;8830;50.978;5.058;2023-02-28T01:20:26;4.30;;;3.50;;
17424;SDS011;8830;50.978;5.058;2023-02-28T01:22:53;5.30;;;3.50;;
17424;SDS011;8830;50.978;5.058;2023-02-28T01:25:20;5.80;;;3.63;;
17424;SDS011;8830;50.978;5.058;2023-02-28T01:27:47;5.60;;;3.87;;
17424;SDS011;8830;50.978;5.058;2023-02-28T01:30:14;4.83;;;3.93;;
17424;SDS011;8830;50.978;5.058;2023-02-28T01:32:42;4.93;;;3.90;;
17424;SDS011;8830;50.978;5.058;2023-02-28T01:35:09;5.37;;;4.03;;
17424;SDS011;8830;50.978;5.058;2023-02-28T01:37:37;6.80;;;3.73;;
17424;SDS011;8830;50.978;5.058;2023-02-28T01:40:05;4.70;;;4.07;;
17424;SDS011;8830;50.978;5.058;2023-02-28T01:42:33;6.80;;;3.97;;
17424;SDS011;8830;50.978;5.058;2023-02-28T01:45:02;5.53;;;4.20;;
17424;SDS011;8830;50.978;5.058;2023-02-28T01:47:35;5.50;;;4.50;;
17424;SDS011;8830;50.978;5.058;2023-02-28T01:50:07;5.37;;;4.00;;
17424;SDS011;8830;50.978;5.058;2023-02-28T01:52:40;8.60;;;4.40;;
17424;SDS011;8830;50.978;5.058;2023-02-28T01:55:09;7.43;;;4.80;;
17424;SDS011;8830;50.978;5.058;2023-02-28T01:57:39;4.97;;;4.53;;
17424;SDS011;8830;50.978;5.058;2023-02-28T02:00:09;5.90;;;4.50;;
17424;SDS011;8830;50.978;5.058;2023-02-28T02:02:40;7.23;;;4.80;;
17424;SDS011;8830;50.978;5.058;2023-02-28T02:05:10;7.60;;;4.57;;
17424;SDS011;8830;50.978;5.058;2023-02-28T02:07:43;5.23;;;4.73;;
17424;SDS011;8830;50.978;5.058;2023-02-28T02:10:12;7.80;;;4.67;;
17424;SDS011;8830;50.978;5.058;2023-02-28T02:12:50;6.77;;;4.60;;
17424;SDS011;8830;50.978;5.058;2023-02-28T02:15:35;4.77;;;4.30;;
17424;SDS011;8830;50.978;5.058;2023-02-28T02:18:09;10.43;;;5.00;;
17424;SDS011;8830;50.978;5.058;2023-02-28T02:20:47;4.73;;;4.33;;
17424;SDS011;8830;50.978;5.058;2023-02-28T02:24:04;7.43;;;4.50;;
17424;SDS011;8830;50.978;5.058;2023-02-28T02:27:01;8.73;;;5.43;;
17424;SDS011;8830;50.978;5.058;2023-02-28T02:29:52;4.97;;;4.47;;
17424;SDS011;8830;50.978;5.058;2023-02-28T02:35:58;7.40;;;4.63;;
17424;SDS011;8830;50.978;5.058;2023-02-28T02:38:31;7.30;;;5.57;;
17424;SDS011;8830;50.978;5.058;2023-02-28T02:41:04;5.07;;;4.50;;
17424;SDS011;8830;50.978;5.058;2023-02-28T02:43:40;5.90;;;5.30;;
17424;SDS011;8830;50.978;5.058;2023-02-28T02:46:13;7.53;;;5.67;;
17424;SDS011;8830;50.978;5.058;2023-02-28T02:48:43;7.93;;;4.77;;
17424;SDS011;8830;50.978;5.058;2023-02-28T02:51:14;10.07;;;5.13;;
17424;SDS011;8830;50.978;5.058;2023-02-28T02:53:45;5.87;;;5.23;;
17424;SDS011;8830;50.978;5.058;2023-02-28T02:56:16;7.03;;;5.23;;
17424;SDS011;8830;50.978;5.058;2023-02-28T02:58:44;12.30;;;6.07;;
17424;SDS011;8830;50.978;5.058;2023-02-28T03:01:15;8.07;;;5.20;;
17424;SDS011;8830;50.978;5.058;2023-02-28T03:03:52;12.43;;;5.80;;
17424;SDS011;8830;50.978;5.058;2023-02-28T03:06:23;9.40;;;5.67;;
17424;SDS011;8830;50.978;5.058;2023-02-28T03:08:49;8.43;;;5.63;;
17424;SDS011;8830;50.978;5.058;2023-02-28T03:11:16;6.00;;;5.40;;
17424;SDS011;8830;50.978;5.058;2023-02-28T03:13:49;9.73;;;5.87;;
17424;SDS011;8830;50.978;5.058;2023-02-28T03:16:40;8.57;;;5.60;;
17424;SDS011;8830;50.978;5.058;2023-02-28T03:19:28;6.57;;;5.50;;
17424;SDS011;8830;50.978;5.058;2023-02-28T03:22:09;8.73;;;5.57;;
17424;SDS011;8830;50.978;5.058;2023-02-28T03:24:43;7.60;;;5.67;;
17424;SDS011;8830;50.978;5.058;2023-02-28T03:27:16;5.83;;;5.33;;
17424;SDS011;8830;50.978;5.058;2023-02-28T03:29:50;8.20;;;5.97;;
17424;SDS011;8830;50.978;5.058;2023-02-28T03:32:24;9.20;;;6.10;;
17424;SDS011;8830;50.978;5.058;2023-02-28T03:34:56;7.00;;;6.30;;
17424;SDS011;8830;50.978;5.058;2023-02-28T03:37:30;10.10;;;5.60;;
17424;SDS011;8830;50.978;5.058;2023-02-28T03:40:01;7.50;;;6.43;;
17424;SDS011;8830;50.978;5.058;2023-02-28T03:42:31;9.70;;;6.07;;
17424;SDS011;8830;50.978;5.058;2023-02-28T03:45:04;12.57;;;6.97;;
17424;SDS011;8830;50.978;5.058;2023-02-28T03:47:37;7.43;;;6.57;;
17424;SDS011;8830;50.978;5.058;2023-02-28T03:50:09;8.47;;;6.23;;
17424;SDS011;8830;50.978;5.058;2023-02-28T03:52:44;9.20;;;6.27;;
17424;SDS011;8830;50.978;5.058;2023-02-28T03:55:14;7.00;;;6.47;;
17424;SDS011;8830;50.978;5.058;2023-02-28T03:57:45;8.23;;;6.50;;
17424;SDS011;8830;50.978;5.058;2023-02-28T04:00:25;6.27;;;5.67;;
17424;SDS011;8830;50.978;5.058;2023-02-28T04:02:56;8.30;;;7.47;;
17424;SDS011;8830;50.978;5.058;2023-02-28T04:05:23;8.00;;;6.47;;
17424;SDS011;8830;50.978;5.058;2023-02-28T04:07:52;8.03;;;6.43;;
17424;SDS011;8830;50.978;5.058;2023-02-28T04:10:20;9.50;;;7.07;;
17424;SDS011;8830;50.978;5.058;2023-02-28T04:12:47;8.10;;;6.60;;
17424;SDS011;8830;50.978;5.058;2023-02-28T04:15:14;7.50;;;6.53;;
17424;SDS011;8830;50.978;5.058;2023-02-28T04:17:41;7.73;;;7.03;;
17424;SDS011;8830;50.978;5.058;2023-02-28T04:20:09;9.20;;;6.90;;
17424;SDS011;8830;50.978;5.058;2023-02-28T04:22:36;7.90;;;7.10;;
17424;SDS011;8830;50.978;5.058;2023-02-28T04:25:06;12.40;;;6.90;;
17424;SDS011;8830;50.978;5.058;2023-02-28T04:27:33;8.87;;;7.00;;
17424;SDS011;8830;50.978;5.058;2023-02-28T04:30:01;7.47;;;6.80;;
17424;SDS011;8830;50.978;5.058;2023-02-28T04:32:27;13.33;;;7.30;;
17424;SDS011;8830;50.978;5.058;2023-02-28T04:34:55;8.53;;;7.07;;
17424;SDS011;8830;50.978;5.058;2023-02-28T04:37:22;9.77;;;7.10;;
17424;SDS011;8830;50.978;5.058;2023-02-28T04:39:53;8.10;;;6.63;;
17424;SDS011;8830;50.978;5.058;2023-02-28T04:42:22;11.53;;;7.23;;
17424;SDS011;8830;50.978;5.058;2023-02-28T04:44:50;8.37;;;6.77;;
17424;SDS011;8830;50.978;5.058;2023-02-28T04:47:17;7.97;;;7.13;;
17424;SDS011;8830;50.978;5.058;2023-02-28T04:49:44;9.10;;;7.47;;
17424;SDS011;8830;50.978;5.058;2023-02-28T04:52:11;8.03;;;7.20;;
17424;SDS011;8830;50.978;5.058;2023-02-28T04:54:39;10.83;;;7.03;;
17424;SDS011;8830;50.978;5.058;2023-02-28T04:57:06;12.17;;;7.60;;
17424;SDS011;8830;50.978;5.058;2023-02-28T04:59:34;11.73;;;7.70;;
17424;SDS011;8830;50.978;5.058;2023-02-28T05:02:01;8.67;;;7.30;;
17424;SDS011;8830;50.978;5.058;2023-02-28T05:04:32;9.00;;;7.10;;
17424;SDS011;8830;50.978;5.058;2023-02-28T05:07:00;10.03;;;7.47;;
17424;SDS011;8830;50.978;5.058;2023-02-28T05:09:28;11.70;;;7.40;;
17424;SDS011;8830;50.978;5.058;2023-02-28T05:11:55;9.50;;;7.33;;
17424;SDS011;8830;50.978;5.058;2023-02-28T05:14:23;12.33;;;8.10;;
17424;SDS011;8830;50.978;5.058;2023-02-28T05:16:52;9.00;;;7.23;;
17424;SDS011;8830;50.978;5.058;2023-02-28T05:19:18;10.57;;;7.53;;
17424;SDS011;8830;50.978;5.058;2023-02-28T05:21:50;10.43;;;7.17;;
17424;SDS011;8830;50.978;5.058;2023-02-28T05:24:19;11.47;;;7.87;;
17424;SDS011;8830;50.978;5.058;2023-02-28T05:26:48;16.20;;;6.97;;
17424;SDS011;8830;50.978;5.058;2023-02-28T05:29:17;7.93;;;7.13;;
17424;SDS011;8830;50.978;5.058;2023-02-28T05:31:44;10.87;;;7.03;;
17424;SDS011;8830;50.978;5.058;2023-02-28T05:34:13;10.60;;;7.17;;
17424;SDS011;8830;50.978;5.058;2023-02-28T05:36:41;13.97;;;7.33;;
17424;SDS011;8830;50.978;5.058;2023-02-28T05:39:08;7.63;;;6.83;;
17424;SDS011;8830;50.978;5.058;2023-02-28T05:41:38;9.67;;;7.27;;
17424;SDS011;8830;50.978;5.058;2023-02-28T05:44:07;10.17;;;7.37;;
17424;SDS011;8830;50.978;5.058;2023-02-28T05:46:34;9.13;;;6.70;;
17424;SDS011;8830;50.978;5.058;2023-02-28T05:49:01;10.43;;;6.67;;
17424;SDS011;8830;50.978;5.058;2023-02-28T05:51:29;10.70;;;7.63;;
17424;SDS011;8830;50.978;5.058;2023-02-28T05:54:00;9.70;;;7.57;;
17424;SDS011;8830;50.978;5.058;2023-02-28T05:56:27;7.70;;;6.90;;
17424;SDS011;8830;50.978;5.058;2023-02-28T05:58:55;16.43;;;8.17;;
17424;SDS011;8830;50.978;5.058;2023-02-28T06:01:24;9.67;;;7.83;;
17424;SDS011;8830;50.978;5.058;2023-02-28T06:03:57;9.43;;;8.17;;
17424;SDS011;8830;50.978;5.058;2023-02-28T06:06:25;12.03;;;8.87;;
17424;SDS011;8830;50.978;5.058;2023-02-28T06:08:53;9.97;;;9.03;;
17424;SDS011;8830;50.978;5.058;2023-02-28T06:11:20;13.03;;;10.33;;
17424;SDS011;8830;50.978;5.058;2023-02-28T06:13:52;11.63;;;10.00;;
17424;SDS011;8830;50.978;5.058;2023-02-28T06:16:19;12.97;;;10.30;;
17424;SDS011;8830;50.978;5.058;2023-02-28T06:18:46;11.43;;;9.40;;
17424;SDS011;8830;50.978;5.058;2023-02-28T06:21:13;15.53;;;11.10;;
17424;SDS011;8830;50.978;5.058;2023-02-28T06:23:40;15.07;;;10.47;;
17424;SDS011;8830;50.978;5.058;2023-02-28T06:26:09;18.90;;;10.23;;
17424;SDS011;8830;50.978;5.058;2023-02-28T06:28:36;14.77;;;9.80;;
17424;SDS011;8830;50.978;5.058;2023-02-28T06:31:07;12.47;;;9.17;;
17424;SDS011;8830;50.978;5.058;2023-02-28T06:33:35;13.30;;;9.87;;
17424;SDS011;8830;50.978;5.058;2023-02-28T06:36:03;10.70;;;9.43;;
17424;SDS011;8830;50.978;5.058;2023-02-28T06:38:30;15.57;;;9.17;;
17424;SDS011;8830;50.978;5.058;2023-02-28T06:40:58;12.97;;;9.40;;
17424;SDS011;8830;50.978;5.058;2023-02-28T06:43:28;11.20;;;9.27;;
17424;SDS011;8830;50.978;5.058;2023-02-28T06:45:57;13.40;;;9.47;;
17424;SDS011;8830;50.978;5.058;2023-02-28T06:48:25;11.77;;;9.37;;
17424;SDS011;8830;50.978;5.058;2023-02-28T06:51:00;17.37;;;9.50;;
17424;SDS011;8830;50.978;5.058;2023-02-28T06:53:28;10.37;;;9.27;;
17424;SDS011;8830;50.978;5.058;2023-02-28T06:55:55;10.83;;;8.90;;
17424;SDS011;8830;50.978;5.058;2023-02-28T06:58:22;18.87;;;10.57;;
17424;SDS011;8830;50.978;5.058;2023-02-28T07:00:52;10.50;;;9.60;;
17424;SDS011;8830;50.978;5.058;2023-02-28T07:03:19;13.67;;;10.27;;
17424;SDS011;8830;50.978;5.058;2023-02-28T07:05:45;12.63;;;10.13;;
17424;SDS011;8830;50.978;5.058;2023-02-28T07:08:12;12.93;;;9.33;;
17424;SDS011;8830;50.978;5.058;2023-02-28T07:10:40;12.67;;;10.67;;
17424;SDS011;8830;50.978;5.058;2023-02-28T07:13:08;11.80;;;9.67;;
17424;SDS011;8830;50.978;5.058;2023-02-28T07:15:36;13.27;;;9.30;;
17424;SDS011;8830;50.978;5.058;2023-02-28T07:18:05;9.13;;;7.53;;
17424;SDS011;8830;50.978;5.058;2023-02-28T07:20:31;8.70;;;6.47;;
17424;SDS011;8830;50.978;5.058;2023-02-28T07:22:58;6.67;;;5.70;;
17424;SDS011;8830;50.978;5.058;2023-02-28T07:25:27;6.60;;;5.63;;
17424;SDS011;8830;50.978;5.058;2023-02-28T07:27:55;5.80;;;5.03;;
17424;SDS011;8830;50.978;5.058;2023-02-28T07:30:24;5.33;;;4.63;;
17424;SDS011;8830;50.978;5.058;2023-02-28T07:32:51;5.00;;;4.50;;
17424;SDS011;8830;50.978;5.058;2023-02-28T07:35:21;10.03;;;4.47;;
17424;SDS011;8830;50.978;5.058;2023-02-28T07:37:48;4.53;;;3.60;;
17424;SDS011;8830;50.978;5.058;2023-02-28T07:40:16;5.57;;;3.87;;
17424;SDS011;8830;50.978;5.058;2023-02-28T07:42:43;3.70;;;3.37;;
17424;SDS011;8830;50.978;5.058;2023-02-28T07:45:11;3.10;;;2.80;;
17424;SDS011;8830;50.978;5.058;2023-02-28T07:47:41;4.23;;;2.93;;
17424;SDS011;8830;50.978;5.058;2023-02-28T07:50:09;3.40;;;2.77;;
17424;SDS011;8830;50.978;5.058;2023-02-28T07:52:39;3.53;;;3.23;;
17424;SDS011;8830;50.978;5.058;2023-02-28T07:55:07;3.37;;;3.07;;
17424;SDS011;8830;50.978;5.058;2023-02-28T07:57:35;3.93;;;3.40;;
17424;SDS011;8830;50.978;5.058;2023-02-28T08:00:04;6.80;;;3.37;;
17424;SDS011;8830;50.978;5.058;2023-02-28T08:02:32;3.33;;;3.03;;
17424;SDS011;8830;50.978;5.058;2023-02-28T08:04:59;3.90;;;3.40;;
17424;SDS011;8830;50.978;5.058;2023-02-28T08:07:27;5.33;;;2.93;;
17424;SDS011;8830;50.978;5.058;2023-02-28T08:09:55;3.23;;;2.93;;
17424;SDS011;8830;50.978;5.058;2023-02-28T08:12:22;7.80;;;3.30;;
17424;SDS011;8830;50.978;5.058;2023-02-28T08:14:49;3.57;;;3.03;;
17424;SDS011;8830;50.978;5.058;2023-02-28T08:17:16;5.70;;;3.50;;
17424;SDS011;8830;50.978;5.058;2023-02-28T08:19:44;3.63;;;3.17;;
17424;SDS011;8830;50.978;5.058;2023-02-28T08:22:11;3.87;;;3.17;;
17424;SDS011;8830;50.978;5.058;2023-02-28T08:24:40;3.03;;;2.73;;
17424;SDS011;8830;50.978;5.058;2023-02-28T08:27:09;3.17;;;2.87;;
17424;SDS011;8830;50.978;5.058;2023-02-28T08:29:36;3.67;;;3.30;;
17424;SDS011;8830;50.978;5.058;2023-02-28T08:32:05;4.20;;;3.80;;
17424;SDS011;8830;50.978;5.058;2023-02-28T08:34:35;3.60;;;2.67;;
17424;SDS011;8830;50.978;5.058;2023-02-28T08:37:05;3.77;;;3.33;;
17424;SDS011;8830;50.978;5.058;2023-02-28T08:39:33;6.57;;;3.67;;
17424;SDS011;8830;50.978;5.058;2023-02-28T08:42:01;4.23;;;3.20;;
17424;SDS011;8830;50.978;5.058;2023-02-28T08:44:30;8.73;;;3.23;;
17424;SDS011;8830;50.978;5.058;2023-02-28T08:46:57;4.63;;;3.40;;
17424;SDS011;8830;50.978;5.058;2023-02-28T08:49:25;3.87;;;3.47;;
17424;SDS011;8830;50.978;5.058;2023-02-28T08:51:54;5.03;;;3.50;;
17424;SDS011;8830;50.978;5.058;2023-02-28T08:54:22;4.40;;;3.30;;
17424;SDS011;8830;50.978;5.058;2023-02-28T08:56:49;3.83;;;3.40;;
17424;SDS011;8830;50.978;5.058;2023-02-28T08:59:17;5.57;;;3.30;;
17424;SDS011;8830;50.978;5.058;2023-02-28T09:01:45;5.17;;;3.60;;
17424;SDS011;8830;50.978;5.058;2023-02-28T09:04:12;4.50;;;3.20;;
17424;SDS011;8830;50.978;5.058;2023-02-28T09:06:39;3.37;;;3.00;;
17424;SDS011;8830;50.978;5.058;2023-02-28T09:09:06;4.20;;;2.77;;
17424;SDS011;8830;50.978;5.058;2023-02-28T09:11:34;4.50;;;3.00;;
17424;SDS011;8830;50.978;5.058;2023-02-28T09:14:02;6.17;;;2.90;;
17424;SDS011;8830;50.978;5.058;2023-02-28T09:16:30;7.53;;;3.40;;
17424;SDS011;8830;50.978;5.058;2023-02-28T09:18:59;5.23;;;2.97;;
17424;SDS011;8830;50.978;5.058;2023-02-28T09:21:26;5.47;;;2.87;;
17424;SDS011;8830;50.978;5.058;2023-02-28T09:23:55;3.93;;;2.80;;
17424;SDS011;8830;50.978;5.058;2023-02-28T09:26:24;3.80;;;2.63;;
17424;SDS011;8830;50.978;5.058;2023-02-28T09:28:52;4.83;;;2.50;;
17424;SDS011;8830;50.978;5.058;2023-02-28T09:31:21;3.07;;;2.50;;
17424;SDS011;8830;50.978;5.058;2023-02-28T09:33:50;2.73;;;2.40;;
17424;SDS011;8830;50.978;5.058;2023-02-28T09:36:20;2.67;;;2.30;;
17424;SDS011;8830;50.978;5.058;2023-02-28T09:38:47;3.43;;;2.17;;
17424;SDS011;8830;50.978;5.058;2023-02-28T09:41:18;3.70;;;2.20;;
17424;SDS011;8830;50.978;5.058;2023-02-28T09:43:48;2.60;;;2.27;;
17424;SDS011;8830;50.978;5.058;2023-02-28T09:46:23;2.50;;;2.30;;
17424;SDS011;8830;50.978;5.058;2023-02-28T09:48:58;2.40;;;2.10;;
17424;SDS011;8830;50.978;5.058;2023-02-28T09:51:33;3.63;;;2.10;;
17424;SDS011;8830;50.978;5.058;2023-02-28T09:54:08;2.13;;;1.87;;
17424;SDS011;8830;50.978;5.058;2023-02-28T09:56:39;1.83;;;1.73;;
17424;SDS011;8830;50.978;5.058;2023-02-28T09:59:10;2.83;;;1.97;;
17424;SDS011;8830;50.978;5.058;2023-02-28T10:01:47;4.57;;;2.10;;
17424;SDS011;8830;50.978;5.058;2023-02-28T10:04:30;2.30;;;1.77;;
17424;SDS011;8830;50.978;5.058;2023-02-28T10:07:15;4.20;;;2.00;;
17424;SDS011;8830;50.978;5.058;2023-02-28T10:09:50;1.80;;;1.70;;
17424;SDS011;8830;50.978;5.058;2023-02-28T10:12:21;3.00;;;1.80;;
17424;SDS011;8830;50.978;5.058;2023-02-28T10:14:50;3.27;;;1.70;;
17424;SDS011;8830;50.978;5.058;2023-02-28T10:17:19;3.37;;;1.97;;
17424;SDS011;8830;50.978;5.058;2023-02-28T10:19:53;2.50;;;2.10;;
17424;SDS011;8830;50.978;5.058;2023-02-28T10:22:27;2.07;;;1.83;;
17424;SDS011;8830;50.978;5.058;2023-02-28T10:25:00;2.33;;;1.70;;
17424;SDS011;8830;50.978;5.058;2023-02-28T10:27:37;2.20;;;1.77;;
17424;SDS011;8830;50.978;5.058;2023-02-28T10:30:05;2.03;;;1.60;;
17424;SDS011;8830;50.978;5.058;2023-02-28T10:32:34;1.40;;;1.30;;
17424;SDS011;8830;50.978;5.058;2023-02-28T10:35:07;1.20;;;0.90;;
17424;SDS011;8830;50.978;5.058;2023-02-28T10:37:40;2.13;;;1.40;;
17424;SDS011;8830;50.978;5.058;2023-02-28T10:40:24;5.60;;;1.33;;
17424;SDS011;8830;50.978;5.058;2023-02-28T10:42:55;1.33;;;1.13;;
17424;SDS011;8830;50.978;5.058;2023-02-28T10:45:23;2.43;;;1.50;;
17424;SDS011;8830;50.978;5.058;2023-02-28T10:47:52;1.87;;;1.20;;
17424;SDS011;8830;50.978;5.058;2023-02-28T10:50:32;1.57;;;1.10;;
17424;SDS011;8830;50.978;5.058;2023-02-28T10:53:07;1.10;;;1.00;;
17424;SDS011;8830;50.978;5.058;2023-02-28T10:55:42;2.00;;;1.47;;
17424;SDS011;8830;50.978;5.058;2023-02-28T10:58:20;2.37;;;1.20;;
17424;SDS011;8830;50.978;5.058;2023-02-28T11:00:51;1.33;;;1.20;;
17424;SDS011;8830;50.978;5.058;2023-02-28T11:03:29;1.60;;;1.50;;
17424;SDS011;8830;50.978;5.058;2023-02-28T11:06:04;2.00;;;1.50;;
17424;SDS011;8830;50.978;5.058;2023-02-28T11:08:35;1.10;;;1.10;;
17424;SDS011;8830;50.978;5.058;2023-02-28T11:11:12;1.10;;;1.03;;
17424;SDS011;8830;50.978;5.058;2023-02-28T11:13:39;2.20;;;1.30;;
17424;SDS011;8830;50.978;5.058;2023-02-28T11:16:08;2.77;;;1.40;;
17424;SDS011;8830;50.978;5.058;2023-02-28T11:18:39;4.17;;;1.60;;
17424;SDS011;8830;50.978;5.058;2023-02-28T11:21:09;1.50;;;1.33;;
17424;SDS011;8830;50.978;5.058;2023-02-28T11:23:42;1.40;;;1.30;;
17424;SDS011;8830;50.978;5.058;2023-02-28T11:26:10;1.47;;;1.30;;
17424;SDS011;8830;50.978;5.058;2023-02-28T11:28:37;2.90;;;1.50;;
17424;SDS011;8830;50.978;5.058;2023-02-28T11:31:15;1.97;;;1.60;;
17424;SDS011;8830;50.978;5.058;2023-02-28T11:33:46;1.50;;;1.40;;
17424;SDS011;8830;50.978;5.058;2023-02-28T11:36:17;1.40;;;1.30;;
17424;SDS011;8830;50.978;5.058;2023-02-28T11:38:47;1.63;;;1.53;;
17424;SDS011;8830;50.978;5.058;2023-02-28T11:41:22;1.50;;;1.00;;
17424;SDS011;8830;50.978;5.058;2023-02-28T11:44:05;1.60;;;1.37;;
17424;SDS011;8830;50.978;5.058;2023-02-28T11:46:54;1.87;;;1.73;;
17424;SDS011;8830;50.978;5.058;2023-02-28T11:49:30;1.90;;;1.10;;
17424;SDS011;8830;50.978;5.058;2023-02-28T11:52:02;1.33;;;1.23;;
17424;SDS011;8830;50.978;5.058;2023-02-28T11:54:47;1.40;;;1.30;;
17424;SDS011;8830;50.978;5.058;2023-02-28T11:57:35;2.70;;;1.40;;
17424;SDS011;8830;50.978;5.058;2023-02-28T12:00:19;1.43;;;1.20;;
17424;SDS011;8830;50.978;5.058;2023-02-28T12:03:01;2.37;;;1.60;;
17424;SDS011;8830;50.978;5.058;2023-02-28T12:05:40;1.30;;;1.20;;
17424;SDS011;8830;50.978;5.058;2023-02-28T12:08:19;1.60;;;1.50;;
17424;SDS011;8830;50.978;5.058;2023-02-28T12:11:00;1.53;;;1.43;;
17424;SDS011;8830;50.978;5.058;2023-02-28T12:13:37;1.80;;;1.60;;
17424;SDS011;8830;50.978;5.058;2023-02-28T12:16:20;3.23;;;1.50;;
17424;SDS011;8830;50.978;5.058;2023-02-28T12:19:07;2.17;;;1.43;;
17424;SDS011;8830;50.978;5.058;2023-02-28T12:21:48;1.33;;;1.23;;
17424;SDS011;8830;50.978;5.058;2023-02-28T12:24:34;1.50;;;1.40;;
17424;SDS011;8830;50.978;5.058;2023-02-28T12:27:18;1.40;;;1.30;;
17424;SDS011;8830;50.978;5.058;2023-02-28T12:29:54;4.97;;;1.40;;
17424;SDS011;8830;50.978;5.058;2023-02-28T12:32:26;1.90;;;1.47;;
17424;SDS011;8830;50.978;5.058;2023-02-28T12:34:58;2.83;;;1.67;;
17424;SDS011;8830;50.978;5.058;2023-02-28T12:37:31;3.90;;;1.73;;
17424;SDS011;8830;50.978;5.058;2023-02-28T12:40:06;3.20;;;1.67;;
17424;SDS011;8830;50.978;5.058;2023-02-28T12:42:39;2.07;;;1.30;;
17424;SDS011;8830;50.978;5.058;2023-02-28T12:45:10;1.13;;;1.03;;
17424;SDS011;8830;50.978;5.058;2023-02-28T12:47:43;5.83;;;1.47;;
17424;SDS011;8830;50.978;5.058;2023-02-28T12:50:12;2.93;;;1.60;;
17424;SDS011;8830;50.978;5.058;2023-02-28T12:52:41;2.33;;;1.73;;
17424;SDS011;8830;50.978;5.058;2023-02-28T12:55:14;2.37;;;2.00;;
17424;SDS011;8830;50.978;5.058;2023-02-28T12:57:50;1.83;;;1.43;;
17424;SDS011;8830;50.978;5.058;2023-02-28T13:00:25;1.87;;;1.73;;
17424;SDS011;8830;50.978;5.058;2023-02-28T13:03:02;2.17;;;1.40;;
17424;SDS011;8830;50.978;5.058;2023-02-28T13:11:28;2.03;;;1.83;;
17424;SDS011;8830;50.978;5.058;2023-02-28T13:14:00;3.90;;;1.80;;
17424;SDS011;8830;50.978;5.058;2023-02-28T13:16:28;2.20;;;2.00;;
17424;SDS011;8830;50.978;5.058;2023-02-28T13:19:17;2.87;;;1.83;;
17424;SDS011;8830;50.978;5.058;2023-02-28T13:21:46;2.67;;;1.73;;
17424;SDS011;8830;50.978;5.058;2023-02-28T13:27:11;2.70;;;2.10;;
17424;SDS011;8830;50.978;5.058;2023-02-28T13:29:58;5.17;;;2.20;;
17424;SDS011;8830;50.978;5.058;2023-02-28T13:32:32;1.90;;;1.80;;
17424;SDS011;8830;50.978;5.058;2023-02-28T13:38:09;2.40;;;2.20;;
17424;SDS011;8830;50.978;5.058;2023-02-28T13:43:59;2.13;;;1.93;;
17424;SDS011;8830;50.978;5.058;2023-02-28T13:46:29;2.90;;;2.20;;
17424;SDS011;8830;50.978;5.058;2023-02-28T13:51:46;3.63;;;2.20;;
17424;SDS011;8830;50.978;5.058;2023-02-28T13:54:18;3.13;;;2.00;;
17424;SDS011;8830;50.978;5.058;2023-02-28T13:57:08;2.50;;;2.10;;
17424;SDS011;8830;50.978;5.058;2023-02-28T13:59:48;1.97;;;1.87;;
17424;SDS011;8830;50.978;5.058;2023-02-28T14:02:31;2.70;;;2.00;;
17424;SDS011;8830;50.978;5.058;2023-02-28T14:05:12;2.00;;;1.90;;
17424;SDS011;8830;50.978;5.058;2023-02-28T14:07:43;4.23;;;2.90;;
17424;SDS011;8830;50.978;5.058;2023-02-28T14:10:20;6.43;;;4.10;;
17424;SDS011;8830;50.978;5.058;2023-02-28T14:12:55;2.10;;;2.00;;
17424;SDS011;8830;50.978;5.058;2023-02-28T14:18:23;3.33;;;3.03;;
17424;SDS011;8830;50.978;5.058;2023-02-28T14:20:54;3.13;;;2.10;;
17424;SDS011;8830;50.978;5.058;2023-02-28T14:23:34;1.93;;;1.83;;
17424;SDS011;8830;50.978;5.058;2023-02-28T14:26:29;2.20;;;2.00;;
17424;SDS011;8830;50.978;5.058;2023-02-28T14:29:18;3.17;;;2.17;;
17424;SDS011;8830;50.978;5.058;2023-02-28T14:32:13;2.77;;;2.30;;
17424;SDS011;8830;50.978;5.058;2023-02-28T14:34:51;2.50;;;2.30;;
17424;SDS011;8830;50.978;5.058;2023-02-28T14:37:27;2.30;;;2.10;;
17424;SDS011;8830;50.978;5.058;2023-02-28T14:39:56;3.50;;;3.13;;
17424;SDS011;8830;50.978;5.058;2023-02-28T14:42:31;2.70;;;2.50;;
17424;SDS011;8830;50.978;5.058;2023-02-28T14:45:00;3.43;;;2.10;;
17424;SDS011;8830;50.978;5.058;2023-02-28T14:47:28;2.47;;;2.00;;
17424;SDS011;8830;50.978;5.058;2023-02-28T14:49:59;3.57;;;2.40;;
17424;SDS011;8830;50.978;5.058;2023-02-28T14:52:29;2.57;;;2.23;;
17424;SDS011;8830;50.978;5.058;2023-02-28T14:54:58;3.17;;;2.00;;
17424;SDS011;8830;50.978;5.058;2023-02-28T14:57:27;8.40;;;5.87;;
17424;SDS011;8830;50.978;5.058;2023-02-28T14:59:59;1.80;;;1.70;;
17424;SDS011;8830;50.978;5.058;2023-02-28T15:02:35;2.83;;;1.70;;
17424;SDS011;8830;50.978;5.058;2023-02-28T15:05:21;3.27;;;2.27;;
17424;SDS011;8830;50.978;5.058;2023-02-28T15:08:00;2.77;;;1.90;;
17424;SDS011;8830;50.978;5.058;2023-02-28T15:10:29;1.80;;;1.70;;
17424;SDS011;8830;50.978;5.058;2023-02-28T15:12:57;4.07;;;2.00;;
17424;SDS011;8830;50.978;5.058;2023-02-28T15:15:28;1.93;;;1.83;;
17424;SDS011;8830;50.978;5.058;2023-02-28T15:18:06;2.63;;;1.67;;
17424;SDS011;8830;50.978;5.058;2023-02-28T15:20:38;3.57;;;2.30;;
17424;SDS011;8830;50.978;5.058;2023-02-28T15:23:08;3.87;;;1.60;;
17424;SDS011;8830;50.978;5.058;2023-02-28T15:25:36;2.27;;;1.83;;
17424;SDS011;8830;50.978;5.058;2023-02-28T15:28:04;1.80;;;1.60;;
17424;SDS011;8830;50.978;5.058;2023-02-28T15:30:31;2.50;;;1.60;;
17424;SDS011;8830;50.978;5.058;2023-02-28T15:33:03;3.67;;;1.90;;
17424;SDS011;8830;50.978;5.058;2023-02-28T15:35:34;2.20;;;1.67;;
17424;SDS011;8830;50.978;5.058;2023-02-28T15:38:03;3.00;;;1.97;;
17424;SDS011;8830;50.978;5.058;2023-02-28T15:40:41;1.83;;;1.67;;
17424;SDS011;8830;50.978;5.058;2023-02-28T15:43:13;4.00;;;1.50;;
17424;SDS011;8830;50.978;5.058;2023-02-28T15:45:45;3.80;;;1.73;;
17424;SDS011;8830;50.978;5.058;2023-02-28T15:48:15;1.93;;;1.73;;